Time;durP1;ratioP1;P1;durP2;ratioP2;P2;SDS_P1;SDS_P2;PMS_P1;PMS_P2;Temp;Humidity;BMP_temperature;BMP_pressure;BME280_temperature;BME280_humidity;BME280_pressure;Samples;Min_cycle;Max_cycle;Signal;HPM_P1;HPM_P2
2022/08/07 00:01:01;;;;;;;0.93;0.60;;;;;;;-148.22;100.00;64452.44;5004233;28;20199;-57
2022/08/07 00:03:48;;;;;;;1.38;0.70;;;;;;;-148.22;100.00;64452.44;5006947;28;20053;-58
2022/08/07 00:06:14;;;;;;;2.05;0.75;;;;;;;-148.22;100.00;64452.44;5004489;28;20711;-55
2022/08/07 00:08:41;;;;;;;2.35;1.02;;;;;;;-148.22;100.00;64452.44;5006355;28;20327;-58
2022/08/07 00:11:10;;;;;;;1.00;0.70;;;;;;;-148.22;100.00;64452.44;4999944;28;20096;-58
2022/08/07 00:13:46;;;;;;;1.58;0.90;;;;;;;-148.22;100.00;64452.44;4999362;28;20047;-58
2022/08/07 00:16:14;;;;;;;1.48;0.80;;;;;;;-148.22;100.00;64452.44;5001419;28;20046;-58
2022/08/07 00:18:47;;;;;;;3.53;1.35;;;;;;;-148.22;100.00;64452.44;5006957;28;20463;-59
2022/08/07 00:21:13;;;;;;;2.53;1.00;;;;;;;-148.22;100.00;64452.44;5005919;28;20049;-57
2022/08/07 00:24:00;;;;;;;2.28;0.90;;;;;;;-148.22;100.00;64452.44;4986512;28;20050;-58
2022/08/07 00:26:27;;;;;;;1.92;0.75;;;;;;;-148.22;100.00;64452.44;4996637;28;20100;-58
2022/08/07 00:29:14;;;;;;;1.55;0.90;;;;;;;-148.22;100.00;64452.44;5001016;28;20042;-55
2022/08/07 00:31:41;;;;;;;1.42;0.60;;;;;;;-148.22;100.00;64452.44;5013001;28;20045;-58
2022/08/07 00:34:07;;;;;;;3.72;0.60;;;;;;;-148.22;100.00;64452.44;5006142;28;20084;-58
2022/08/07 00:36:38;;;;;;;1.45;0.77;;;;;;;-148.22;100.00;64452.44;5005342;28;20042;-58
2022/08/07 00:39:10;;;;;;;0.90;0.60;;;;;;;-148.22;100.00;64452.44;5006692;28;20562;-58
2022/08/07 00:41:55;;;;;;;1.15;0.70;;;;;;;-148.22;100.00;64452.44;5004286;28;20128;-58
2022/08/07 00:44:30;;;;;;;2.00;0.70;;;;;;;-148.22;100.00;64452.44;4998347;28;20494;-57
2022/08/07 00:46:59;;;;;;;1.52;0.90;;;;;;;-148.22;100.00;64452.44;5006314;28;20046;-58
2022/08/07 00:49:27;;;;;;;2.13;0.88;;;;;;;-148.22;100.00;64452.44;5006663;28;20056;-57
2022/08/07 00:52:13;;;;;;;4.03;0.80;;;;;;;-148.22;100.00;64452.44;5006344;28;20046;-58
2022/08/07 00:54:45;;;;;;;;;;;;;;;-148.22;100.00;64452.44;5005650;28;20401;-58
2022/08/07 00:57:21;;;;;;;2.53;0.85;;;;;;;-148.22;100.00;64452.44;4994425;28;19928;-57
2022/08/07 00:59:48;;;;;;;1.55;0.80;;;;;;;-148.22;100.00;64452.44;5005681;28;20041;-57
2022/08/07 01:02:14;;;;;;;1.25;0.77;;;;;;;-148.22;100.00;64452.44;5021434;28;20365;-55
2022/08/07 01:04:55;;;;;;;2.15;1.05;;;;;;;-148.22;100.00;64452.44;5005460;28;20038;-57
2022/08/07 01:07:26;;;;;;;2.88;1.20;;;;;;;-148.22;100.00;64452.44;5000910;28;20070;-57
2022/08/07 01:09:56;;;;;;;2.15;0.90;;;;;;;-148.22;100.00;64452.44;5002976;28;20038;-57
2022/08/07 01:12:37;;;;;;;1.65;0.95;;;;;;;-148.22;100.00;64452.44;4986576;28;20482;-58
2022/08/07 01:15:06;;;;;;;4.13;1.02;;;;;;;-148.22;100.00;64452.44;4991199;28;20136;-58
2022/08/07 01:17:38;;;;;;;1.88;0.95;;;;;;;-148.22;100.00;64452.44;5004487;28;20050;-56
2022/08/07 01:20:09;;;;;;;2.20;1.00;;;;;;;-148.22;100.00;64452.44;5005717;28;20042;-57
2022/08/07 01:22:43;;;;;;;3.10;1.30;;;;;;;-148.22;100.00;64452.44;5004807;28;20565;-58
2022/08/07 01:25:27;;;;;;;3.47;1.05;;;;;;;-148.22;100.00;64452.44;4989831;28;20138;-58
2022/08/07 01:28:14;;;;;;;2.80;1.33;;;;;;;-148.22;100.00;64452.44;4995685;28;20073;-58
2022/08/07 01:30:43;;;;;;;1.67;0.95;;;;;;;-148.22;100.00;64452.44;5004794;28;20328;-58
2022/08/07 01:33:21;;;;;;;4.97;1.10;;;;;;;-148.22;100.00;64452.44;5000743;28;20137;-58
2022/08/07 01:35:50;;;;;;;3.38;0.80;;;;;;;-148.22;100.00;64452.44;4993778;28;20053;-58
2022/08/07 01:38:31;;;;;;;1.42;0.70;;;;;;;-148.22;100.00;64452.44;4986729;28;20136;-58
2022/08/07 01:41:06;;;;;;;1.55;1.00;;;;;;;-148.22;100.00;64452.44;4990286;28;20465;-58
2022/08/07 01:43:36;;;;;;;1.55;0.93;;;;;;;-148.22;100.00;64452.44;5000725;28;20047;-58
2022/08/07 01:46:06;;;;;;;2.83;0.70;;;;;;;-148.22;100.00;64452.44;4997217;28;20051;-58
2022/08/07 01:48:41;;;;;;;1.35;0.70;;;;;;;-148.22;100.00;64452.44;5002869;28;20480;-55
2022/08/07 01:51:20;;;;;;;1.42;0.70;;;;;;;-148.22;100.00;64452.44;5004423;28;20057;-58
2022/08/07 01:54:09;;;;;;;1.50;0.98;;;;;;;-148.22;100.00;64452.44;5004843;28;20045;-58
2022/08/07 01:57:14;;;;;;;2.60;0.80;;;;;;;-148.22;100.00;64452.44;5022533;28;20053;-58
2022/08/07 02:00:08;;;;;;;1.45;0.90;;;;;;;-148.22;100.00;64452.44;5008148;28;20095;-56
2022/08/07 02:02:49;;;;;;;1.98;0.65;;;;;;;-148.22;100.00;64452.44;5007573;28;20525;-58
2022/08/07 02:06:01;;;;;;;4.13;0.90;;;;;;;-148.22;100.00;64452.44;5007909;28;20111;-59
2022/08/07 02:08:39;;;;;;;3.25;0.85;;;;;;;-148.22;100.00;64452.44;5003914;28;20043;-55
2022/08/07 02:11:09;;;;;;;4.78;0.90;;;;;;;-148.22;100.00;64452.44;4988540;28;20042;-57
2022/08/07 02:13:59;;;;;;;1.88;0.75;;;;;;;-148.22;100.00;64452.44;4988980;28;20077;-57
2022/08/07 02:16:30;;;;;;;1.92;0.90;;;;;;;-148.22;100.00;64452.44;5007863;28;20041;-57
2022/08/07 02:19:06;;;;;;;4.18;1.08;;;;;;;-148.22;100.00;64452.44;4987411;28;20065;-57
2022/08/07 02:21:54;;;;;;;4.00;1.13;;;;;;;-148.22;100.00;64452.44;4990094;28;20418;-58
2022/08/07 02:24:26;;;;;;;2.45;1.00;;;;;;;-148.22;100.00;64452.44;5009217;28;20433;-56
2022/08/07 02:26:59;;;;;;;2.53;1.08;;;;;;;-148.22;100.00;64452.44;5006858;28;20111;-57
2022/08/07 02:29:29;;;;;;;2.60;1.25;;;;;;;-148.22;100.00;64452.44;5006805;28;20045;-57
2022/08/07 02:31:58;;;;;;;2.30;1.08;;;;;;;-148.22;100.00;64452.44;5006748;28;20532;-55
2022/08/07 02:34:27;;;;;;;3.22;1.15;;;;;;;-148.22;100.00;64452.44;5006819;28;20457;-57
2022/08/07 02:36:57;;;;;;;2.25;1.00;;;;;;;-148.22;100.00;64452.44;5006944;28;20641;-57
2022/08/07 02:39:25;;;;;;;4.22;1.17;;;;;;;-148.22;100.00;64452.44;5007132;28;20038;-58
2022/08/07 02:42:17;;;;;;;2.15;1.15;;;;;;;-148.22;100.00;64452.44;5003425;28;20042;-57
2022/08/07 02:44:49;;;;;;;2.75;1.23;;;;;;;-148.22;100.00;64452.44;5006326;28;20046;-57
2022/08/07 02:47:21;;;;;;;1.85;1.10;;;;;;;-148.22;100.00;64452.44;5003107;28;20049;-58
2022/08/07 02:49:53;;;;;;;3.83;1.08;;;;;;;-148.22;100.00;64452.44;4989466;28;20042;-58
2022/08/07 02:52:35;;;;;;;2.80;1.27;;;;;;;-148.22;100.00;64452.44;5019037;28;20108;-58
2022/08/07 02:55:11;;;;;;;2.88;1.10;;;;;;;-148.22;100.00;64452.44;5003921;28;20506;-58
2022/08/07 02:58:03;;;;;;;2.03;0.80;;;;;;;-148.22;100.00;64452.44;5007194;28;20046;-59
2022/08/07 03:00:33;;;;;;;2.08;0.93;;;;;;;-148.22;100.00;64452.44;5006751;28;20401;-57
2022/08/07 03:03:04;;;;;;;3.50;0.90;;;;;;;-148.22;100.00;64452.44;5023310;28;20049;-58
2022/08/07 03:05:36;;;;;;;5.20;0.90;;;;;;;-148.22;100.00;64452.44;5006262;28;20061;-58
2022/08/07 03:08:06;;;;;;;2.60;1.05;;;;;;;-148.22;100.00;64452.44;4993855;28;20430;-58
2022/08/07 03:10:41;;;;;;;2.03;0.90;;;;;;;-148.22;100.00;64452.44;4987344;28;20518;-60
2022/08/07 03:13:17;;;;;;;1.38;0.80;;;;;;;-148.22;100.00;64452.44;4986875;28;20042;-55
2022/08/07 03:15:48;;;;;;;2.33;0.90;;;;;;;-148.22;100.00;64452.44;4995568;28;20149;-58
2022/08/07 03:18:26;;;;;;;1.77;1.00;;;;;;;-148.22;100.00;64452.44;4996592;28;20053;-57
2022/08/07 03:21:05;;;;;;;3.33;1.05;;;;;;;-148.22;100.00;64452.44;4991569;28;20038;-58
2022/08/07 03:23:40;;;;;;;2.25;0.95;;;;;;;-148.22;100.00;64452.44;5002804;28;20050;-57
2022/08/07 03:26:31;;;;;;;3.03;1.00;;;;;;;-148.22;100.00;64452.44;4993766;28;20054;-57
2022/08/07 03:29:06;;;;;;;2.58;1.20;;;;;;;-148.22;100.00;64452.44;5006682;28;20042;-58
2022/08/07 03:31:39;;;;;;;2.85;0.98;;;;;;;-148.22;100.00;64452.44;5007562;28;20050;-54
2022/08/07 03:34:13;;;;;;;1.63;0.90;;;;;;;-148.22;100.00;64452.44;5006640;28;20077;-57
2022/08/07 03:36:51;;;;;;;2.53;1.00;;;;;;;-148.22;100.00;64452.44;5006569;28;20128;-56
2022/08/07 03:39:22;;;;;;;1.63;0.80;;;;;;;-148.22;100.00;64452.44;4995737;28;20054;-58
2022/08/07 03:42:10;;;;;;;1.95;1.00;;;;;;;-148.22;100.00;64452.44;5000148;28;20499;-58
2022/08/07 03:44:38;;;;;;;3.92;0.90;;;;;;;-148.22;100.00;64452.44;5005881;28;20038;-58
2022/08/07 03:47:07;;;;;;;1.73;1.02;;;;;;;-148.22;100.00;64452.44;5005583;28;20061;-58
2022/08/07 03:49:42;;;;;;;3.38;1.05;;;;;;;-148.22;100.00;64452.44;5022075;28;20074;-57
2022/08/07 03:52:28;;;;;;;2.50;1.00;;;;;;;-148.22;100.00;64452.44;5005739;28;20049;-58
2022/08/07 03:55:00;;;;;;;1.80;1.00;;;;;;;-148.22;100.00;64452.44;5005813;28;20042;-58
2022/08/07 03:57:37;;;;;;;1.52;1.00;;;;;;;-148.22;100.00;64452.44;5001915;28;20057;-57
2022/08/07 04:00:29;;;;;;;1.83;1.00;;;;;;;-148.22;100.00;64452.44;5015140;28;20046;-58
2022/08/07 04:03:02;;;;;;;2.35;1.48;;;;;;;-148.22;100.00;64452.44;4998155;28;20387;-57
2022/08/07 04:05:35;;;;;;;1.75;1.00;;;;;;;-148.22;100.00;64452.44;4985843;28;20437;-56
2022/08/07 04:08:16;;;;;;;1.80;0.90;;;;;;;-148.22;100.00;64452.44;4994711;28;20146;-57
2022/08/07 04:10:48;;;;;;;4.15;1.20;;;;;;;-148.22;100.00;64452.44;4987124;28;20532;-57
2022/08/07 04:13:36;;;;;;;4.30;1.02;;;;;;;-148.22;100.00;64452.44;4994734;28;20043;-57
2022/08/07 04:16:23;;;;;;;4.00;1.20;;;;;;;-148.22;100.00;64452.44;5000275;28;20206;-57
2022/08/07 04:19:00;;;;;;;2.08;1.00;;;;;;;-148.22;100.00;64452.44;4996972;28;20145;-58
2022/08/07 04:21:37;;;;;;;1.73;1.00;;;;;;;-148.22;100.00;64452.44;4998404;28;20458;-56
2022/08/07 04:24:09;;;;;;;3.33;1.20;;;;;;;-148.22;100.00;64452.44;4997151;28;20532;-58
2022/08/07 04:26:58;;;;;;;3.47;1.20;;;;;;;-148.22;100.00;64452.44;4987693;28;20084;-58
2022/08/07 04:29:26;;;;;;;2.33;1.13;;;;;;;-148.22;100.00;64452.44;4999684;28;20054;-57
2022/08/07 04:32:08;;;;;;;1.52;0.90;;;;;;;-148.22;100.00;64452.44;4996448;28;20449;-58
2022/08/07 04:34:37;;;;;;;2.33;1.00;;;;;;;-148.22;100.00;64452.44;4991479;28;20050;-59
2022/08/07 04:37:05;;;;;;;2.85;1.10;;;;;;;-148.22;100.00;64452.44;4996593;28;20050;-59
2022/08/07 04:39:40;;;;;;;1.27;0.85;;;;;;;-148.22;100.00;64452.44;4987285;28;20050;-57
2022/08/07 04:42:16;;;;;;;2.97;1.10;;;;;;;-148.22;100.00;64452.44;4999822;28;20039;-58
2022/08/07 04:44:43;;;;;;;2.55;1.13;;;;;;;-148.22;100.00;64452.44;4985597;28;20089;-58
2022/08/07 04:47:47;;;;;;;3.38;1.00;;;;;;;-148.22;100.00;64452.44;4988465;28;20050;-55
2022/08/07 04:50:40;;;;;;;1.60;1.10;;;;;;;-148.22;100.00;64452.44;4993288;28;20132;-57
2022/08/07 04:53:26;;;;;;;2.90;1.00;;;;;;;-148.22;100.00;64452.44;5003144;28;20290;-58
2022/08/07 04:56:20;;;;;;;2.90;1.38;;;;;;;-148.22;100.00;64452.44;4999329;28;20413;-55
2022/08/07 04:59:33;;;;;;;1.50;0.80;;;;;;;-148.22;100.00;64452.44;5019750;28;20132;-56
2022/08/07 05:02:37;;;;;;;4.70;1.20;;;;;;;-148.22;100.00;64452.44;4996938;28;19925;-58
2022/08/07 05:05:36;;;;;;;1.92;1.10;;;;;;;-148.22;100.00;64452.44;5002164;28;20050;-55
2022/08/07 05:08:50;;;;;;;2.22;1.20;;;;;;;-148.22;100.00;64452.44;4999267;28;20336;-54
2022/08/07 05:11:34;;;;;;;3.30;1.20;;;;;;;-148.22;100.00;64452.44;5001736;28;20521;-50
2022/08/07 05:14:28;;;;;;;1.60;1.00;;;;;;;-148.22;100.00;64452.44;5017916;28;20049;-53
2022/08/07 05:17:19;;;;;;;3.05;1.30;;;;;;;-148.22;100.00;64452.44;4998903;28;20046;-49
2022/08/07 05:20:08;;;;;;;1.63;1.20;;;;;;;-148.22;100.00;64452.44;4997020;28;20242;-54
2022/08/07 05:22:38;;;;;;;;;;;;;;;-148.22;100.00;64452.44;4987652;28;20050;-52
2022/08/07 05:25:08;;;;;;;3.00;1.50;;;;;;;-148.22;100.00;64452.44;4988717;28;19922;-55
2022/08/07 05:27:55;;;;;;;1.55;1.10;;;;;;;-148.22;100.00;64452.44;4985334;28;20303;-53
2022/08/07 05:30:43;;;;;;;;;;;;;;;-148.22;100.00;64452.44;4987383;28;20016;-55
2022/08/07 05:33:13;;;;;;;;;;;;;;;-148.22;100.00;64452.44;4995963;28;19922;-52
2022/08/07 05:35:44;;;;;;;2.88;1.10;;;;;;;-148.22;100.00;64452.44;5003767;28;20222;-52
2022/08/07 05:38:13;;;;;;;1.75;0.90;;;;;;;-148.22;100.00;64452.44;4990726;28;20456;-52
2022/08/07 05:41:01;;;;;;;1.83;1.05;;;;;;;-148.22;100.00;64452.44;5002864;28;20533;-52
2022/08/07 05:43:39;;;;;;;1.30;0.90;;;;;;;-148.22;100.00;64452.44;5009722;28;20046;-53
2022/08/07 05:46:26;;;;;;;1.85;0.80;;;;;;;-148.22;100.00;64452.44;4997537;28;20461;-54
2022/08/07 05:48:58;;;;;;;1.60;1.00;;;;;;;-148.22;100.00;64452.44;4988786;28;20038;-58
2022/08/07 05:51:31;;;;;;;1.52;0.90;;;;;;;-148.22;100.00;64452.44;4998205;28;20054;-59
2022/08/07 05:54:05;;;;;;;;;;;;;;;-148.22;100.00;64452.44;5016157;28;20733;-60
2022/08/07 05:56:53;;;;;;;;;;;;;;;-148.22;100.00;64452.44;4990898;28;19926;-58
2022/08/07 05:59:21;;;;;;;1.85;0.90;;;;;;;-148.22;100.00;64452.44;5006694;28;20842;-59
2022/08/07 06:01:56;;;;;;;2.80;1.10;;;;;;;-148.22;100.00;64452.44;5002948;28;20054;-59
2022/08/07 06:04:26;;;;;;;3.88;0.93;;;;;;;-148.22;100.00;64452.44;5001238;28;20049;-59
2022/08/07 06:06:58;;;;;;;1.80;1.08;;;;;;;-148.22;100.00;64452.44;5002146;28;20470;-59
2022/08/07 06:09:31;;;;;;;5.55;1.13;;;;;;;-148.22;100.00;64452.44;5001365;28;20058;-59
2022/08/07 06:12:18;;;;;;;2.40;1.10;;;;;;;-148.22;100.00;64452.44;5001550;28;20421;-59
2022/08/07 06:14:53;;;;;;;1.95;1.10;;;;;;;-148.22;100.00;64452.44;4993041;28;20054;-59
2022/08/07 06:17:26;;;;;;;2.10;1.10;;;;;;;-148.22;100.00;64452.44;4990820;28;20042;-59
2022/08/07 06:20:00;;;;;;;1.88;1.00;;;;;;;-148.22;100.00;64452.44;5003502;28;20452;-59
2022/08/07 06:22:34;;;;;;;2.38;1.02;;;;;;;-148.22;100.00;64452.44;4988246;28;20044;-60
2022/08/07 06:25:32;;;;;;;4.32;1.02;;;;;;;-148.22;100.00;64452.44;4986096;28;20054;-59
2022/08/07 06:28:04;;;;;;;2.70;1.10;;;;;;;-148.22;100.00;64452.44;4990474;28;20068;-59
2022/08/07 06:30:33;;;;;;;1.55;1.02;;;;;;;-148.22;100.00;64452.44;5003703;28;20034;-59
2022/08/07 06:33:14;;;;;;;3.65;1.35;;;;;;;-148.22;100.00;64452.44;4993198;28;20046;-59
2022/08/07 06:35:45;;;;;;;4.38;1.50;;;;;;;-148.22;100.00;64452.44;4992692;28;20049;-57
2022/08/07 06:38:32;;;;;;;2.55;1.60;;;;;;;-148.22;100.00;64452.44;4993526;28;20046;-59
2022/08/07 06:41:03;;;;;;;3.80;1.77;;;;;;;-148.22;100.00;64452.44;4985761;28;20053;-57
2022/08/07 06:43:36;;;;;;;3.13;1.52;;;;;;;-148.22;100.00;64452.44;4989086;28;20054;-58
2022/08/07 06:46:18;;;;;;;3.40;1.80;;;;;;;-148.22;100.00;64452.44;5001819;28;20068;-60
2022/08/07 06:48:59;;;;;;;3.45;1.90;;;;;;;-148.22;100.00;64452.44;4997147;28;20049;-62
2022/08/07 06:51:33;;;;;;;3.97;2.15;;;;;;;-148.22;100.00;64452.44;4989153;28;20073;-62
2022/08/07 06:54:06;;;;;;;5.13;2.55;;;;;;;-148.22;100.00;64452.44;5009778;28;20141;-61
2022/08/07 06:56:55;;;;;;;4.50;2.15;;;;;;;-148.22;100.00;64452.44;4987598;28;20137;-62
2022/08/07 06:59:32;;;;;;;4.60;2.60;;;;;;;-148.22;100.00;64452.44;4995466;28;20054;-62
2022/08/07 07:02:24;;;;;;;5.13;2.08;;;;;;;-148.22;100.00;64452.44;4984804;28;20057;-61
2022/08/07 07:05:11;;;;;;;5.20;2.30;;;;;;;-148.22;100.00;64452.44;4993301;28;20042;-61
2022/08/07 07:07:39;;;;;;;3.53;2.03;;;;;;;-148.22;100.00;64452.44;4996831;28;20049;-62
2022/08/07 07:10:30;;;;;;;4.30;2.58;;;;;;;-148.22;100.00;64452.44;4999078;28;20702;-62
2022/08/07 07:13:03;;;;;;;5.55;2.53;;;;;;;-148.22;100.00;64452.44;4989119;28;20045;-61
2022/08/07 07:15:34;;;;;;;3.40;2.15;;;;;;;-148.22;100.00;64452.44;5002288;28;20057;-62
2022/08/07 07:18:12;;;;;;;4.85;2.50;;;;;;;-148.22;100.00;64452.44;4993979;28;20501;-61
2022/08/07 07:20:48;;;;;;;4.25;2.70;;;;;;;-148.22;100.00;64452.44;5007792;28;20084;-62
2022/08/07 07:23:15;;;;;;;4.78;2.30;;;;;;;-148.22;100.00;64452.44;5007924;28;20440;-62
2022/08/07 07:26:06;;;;;;;4.85;2.40;;;;;;;-148.22;100.00;64452.44;5007372;28;20672;-62
2022/08/07 07:28:56;;;;;;;4.45;2.22;;;;;;;-148.22;100.00;64452.44;5007779;28;20049;-62
2022/08/07 07:31:47;;;;;;;4.20;2.17;;;;;;;-148.22;100.00;64452.44;5007912;28;20065;-62
2022/08/07 07:34:21;;;;;;;4.00;1.90;;;;;;;-148.22;100.00;64452.44;5007308;28;20513;-62
2022/08/07 07:36:59;;;;;;;4.15;2.30;;;;;;;-148.22;100.00;64452.44;5004634;28;20038;-62
2022/08/07 07:39:47;;;;;;;6.00;2.45;;;;;;;-148.22;100.00;64452.44;4993248;28;20089;-62
2022/08/07 07:42:23;;;;;;;4.20;2.08;;;;;;;-148.22;100.00;64452.44;4988496;28;20054;-62
2022/08/07 07:45:01;;;;;;;3.45;1.95;;;;;;;-148.22;100.00;64452.44;4992621;28;20493;-63
2022/08/07 07:47:30;;;;;;;3.88;2.20;;;;;;;-148.22;100.00;64452.44;5003728;28;20049;-63
2022/08/07 07:50:19;;;;;;;3.05;1.98;;;;;;;-148.22;100.00;64452.44;4997295;28;20050;-63
2022/08/07 07:53:09;;;;;;;2.78;1.90;;;;;;;-148.22;100.00;64452.44;4997497;28;20041;-63
2022/08/07 07:55:55;;;;;;;2.95;1.70;;;;;;;-148.22;100.00;64452.44;5004801;28;20413;-62
2022/08/07 07:58:32;;;;;;;4.70;2.70;;;;;;;-148.22;100.00;64452.44;5004579;28;20052;-62
2022/08/07 08:01:08;;;;;;;4.22;2.08;;;;;;;-148.22;100.00;64452.44;4994491;28;20132;-63
2022/08/07 08:03:59;;;;;;;4.63;2.10;;;;;;;-148.22;100.00;64452.44;4999630;28;20404;-62
2022/08/07 08:06:38;;;;;;;2.80;1.88;;;;;;;-148.22;100.00;64452.44;5007585;28;20065;-62
2022/08/07 08:09:07;;;;;;;5.88;2.10;;;;;;;-148.22;100.00;64452.44;5006861;28;20408;-64
2022/08/07 08:11:36;;;;;;;4.28;2.25;;;;;;;-148.22;100.00;64452.44;5006449;28;20038;-63
2022/08/07 08:14:23;;;;;;;3.65;2.03;;;;;;;-148.22;100.00;64452.44;5006716;28;20041;-62
2022/08/07 08:16:54;;;;;;;4.65;2.00;;;;;;;-148.22;100.00;64452.44;5005914;28;20042;-62
2022/08/07 08:19:26;;;;;;;4.18;1.77;;;;;;;-148.22;100.00;64452.44;5006198;28;20444;-62
2022/08/07 08:28:11;;;;;;;4.55;2.10;;;;;;;-148.22;100.00;64452.44;5006678;28;20042;-63
2022/08/07 08:30:44;;;;;;;3.17;1.70;;;;;;;-148.22;100.00;64452.44;5006699;28;20473;-62
2022/08/07 08:33:26;;;;;;;2.83;1.67;;;;;;;-148.22;100.00;64452.44;5006679;28;20391;-65
2022/08/07 08:36:00;;;;;;;3.55;1.55;;;;;;;-148.22;100.00;64452.44;5006198;28;20494;-63
2022/08/07 08:38:32;;;;;;;2.78;1.50;;;;;;;-148.22;100.00;64452.44;5006240;28;20084;-63
2022/08/07 08:41:21;;;;;;;4.03;1.90;;;;;;;-148.22;100.00;64452.44;5006419;28;20042;-63
2022/08/07 08:44:08;;;;;;;3.85;2.42;;;;;;;-148.22;100.00;64452.44;5006155;28;20057;-60
2022/08/07 08:46:58;;;;;;;3.22;1.65;;;;;;;-148.22;100.00;64452.44;5005832;28;20038;-62
2022/08/07 08:49:37;;;;;;;2.15;1.33;;;;;;;-148.22;100.00;64452.44;5005738;28;20042;-63
2022/08/07 08:52:28;;;;;;;2.67;1.40;;;;;;;-148.22;100.00;64452.44;4999258;28;20546;-62
2022/08/07 08:55:18;;;;;;;2.75;1.30;;;;;;;-148.22;100.00;64452.44;4988500;28;20081;-62
2022/08/07 08:58:21;;;;;;;2.58;1.52;;;;;;;-148.22;100.00;64452.44;5006300;28;20042;-62
2022/08/07 09:01:01;;;;;;;2.53;1.20;;;;;;;-148.22;100.00;64452.44;5006340;28;20042;-63
2022/08/07 09:04:07;;;;;;;4.63;1.48;;;;;;;-148.22;100.00;64452.44;5005850;28;20050;-62
2022/08/07 09:06:39;;;;;;;3.25;1.60;;;;;;;-148.22;100.00;64452.44;5003559;28;20073;-61
2022/08/07 09:09:16;;;;;;;4.00;1.83;;;;;;;-148.22;100.00;64452.44;5010106;28;20049;-62
2022/08/07 09:12:11;;;;;;;3.33;1.52;;;;;;;-148.22;100.00;64452.44;4995094;28;20046;-63
2022/08/07 09:15:06;;;;;;;2.33;1.60;;;;;;;-148.22;100.00;64452.44;5004177;28;20132;-63
2022/08/07 09:17:53;;;;;;;3.50;1.90;;;;;;;-148.22;100.00;64452.44;5000961;28;20108;-62
2022/08/07 09:20:55;;;;;;;4.85;1.85;;;;;;;-148.22;100.00;64452.44;5001066;28;20050;-62
2022/08/07 09:23:46;;;;;;;3.78;1.40;;;;;;;-148.22;100.00;64452.44;5006475;28;20165;-63
2022/08/07 09:26:43;;;;;;;2.40;1.20;;;;;;;-148.22;100.00;64452.44;4996186;28;20038;-62
2022/08/07 09:29:48;;;;;;;1.73;1.00;;;;;;;-148.22;100.00;64452.44;5003743;28;20502;-63
2022/08/07 09:32:45;;;;;;;1.00;0.70;;;;;;;-148.22;100.00;64452.44;4995336;28;20039;-63
2022/08/07 09:35:30;;;;;;;0.63;0.55;;;;;;;-148.22;100.00;64452.44;4990940;28;20046;-62
2022/08/07 09:38:43;;;;;;;2.30;0.88;;;;;;;-148.22;100.00;64452.44;4991754;28;20104;-61
2022/08/07 09:41:43;;;;;;;1.33;0.60;;;;;;;-148.22;100.00;64452.44;4998918;28;20262;-62
2022/08/07 09:45:03;;;;;;;1.55;0.90;;;;;;;-148.22;100.00;64452.44;4990579;28;20077;-62
2022/08/07 09:48:12;;;;;;;1.90;0.70;;;;;;;-148.22;100.00;64452.44;5008719;28;20046;-62
2022/08/07 09:51:03;;;;;;;2.47;0.90;;;;;;;-148.22;100.00;64452.44;5009141;28;20038;-63
2022/08/07 09:53:43;;;;;;;1.10;0.63;;;;;;;-148.22;100.00;64452.44;4989921;28;20043;-62
2022/08/07 09:56:59;;;;;;;1.15;0.60;;;;;;;-148.22;100.00;64452.44;4997264;28;20125;-62
2022/08/07 10:00:03;;;;;;;2.38;0.80;;;;;;;-148.22;100.00;64452.44;5008224;28;20505;-62
2022/08/07 10:03:09;;;;;;;1.70;0.75;;;;;;;-148.22;100.00;64452.44;5009451;28;20478;-61
2022/08/07 10:06:17;;;;;;;1.17;0.63;;;;;;;-148.22;100.00;64452.44;5008731;28;20034;-62
2022/08/07 10:09:08;;;;;;;1.00;0.60;;;;;;;-148.22;100.00;64452.44;5009243;28;20057;-62
2022/08/07 10:12:06;;;;;;;1.42;0.60;;;;;;;-148.22;100.00;64452.44;5008919;28;20503;-63
2022/08/07 10:15:21;;;;;;;2.13;0.70;;;;;;;-148.22;100.00;64452.44;5009718;28;20034;-61
2022/08/07 10:18:13;;;;;;;1.58;0.73;;;;;;;-148.22;100.00;64452.44;5009907;28;20042;-62
2022/08/07 10:21:17;;;;;;;1.38;0.77;;;;;;;-148.22;100.00;64452.44;5008712;28;20049;-63
2022/08/07 10:24:19;;;;;;;;;;;;;;;-148.22;100.00;64452.44;5009151;28;20058;-63
2022/08/07 10:27:08;;;;;;;3.20;0.60;;;;;;;-148.22;100.00;64452.44;5008795;28;20443;-63
2022/08/07 10:29:54;;;;;;;1.25;0.70;;;;;;;-148.22;100.00;64452.44;5007424;28;20521;-63
2022/08/07 10:32:45;;;;;;;1.92;0.70;;;;;;;-148.22;100.00;64452.44;5008754;28;20324;-65
2022/08/07 10:35:27;;;;;;;1.98;0.70;;;;;;;-148.22;100.00;64452.44;5008589;28;20062;-63
2022/08/07 10:38:26;;;;;;;0.85;0.60;;;;;;;-148.22;100.00;64452.44;4990463;28;20543;-63
2022/08/07 10:41:31;;;;;;;2.38;0.90;;;;;;;-148.22;100.00;64452.44;5007809;28;20037;-62
2022/08/07 10:44:31;;;;;;;1.95;0.60;;;;;;;-148.22;100.00;64452.44;5008658;28;20112;-63
2022/08/07 10:47:17;;;;;;;1.42;0.60;;;;;;;-148.22;100.00;64452.44;5008033;28;20038;-63
2022/08/07 10:50:04;;;;;;;0.77;0.52;;;;;;;-148.22;100.00;64452.44;4991419;28;20056;-62
2022/08/07 10:52:38;;;;;;;1.63;0.70;;;;;;;-148.22;100.00;64452.44;4999109;28;20055;-63
2022/08/07 10:55:13;;;;;;;1.45;1.00;;;;;;;-148.22;100.00;64452.44;4992318;28;20046;-62
2022/08/07 10:58:19;;;;;;;0.90;0.60;;;;;;;-148.22;100.00;64452.44;5002680;28;20100;-62
2022/08/07 11:01:26;;;;;;;1.52;0.70;;;;;;;-148.22;100.00;64452.44;5005130;28;20125;-62
2022/08/07 11:04:16;;;;;;;1.00;0.60;;;;;;;-148.22;100.00;64452.44;4996980;28;20038;-62
2022/08/07 11:07:13;;;;;;;1.92;0.60;;;;;;;-148.22;100.00;64452.44;4988315;28;20058;-63
2022/08/07 11:09:56;;;;;;;1.20;0.60;;;;;;;-148.22;100.00;64452.44;4991232;28;20218;-63
2022/08/07 11:12:41;;;;;;;1.50;0.70;;;;;;;-148.22;100.00;64452.44;5007778;28;20046;-62
2022/08/07 11:15:16;;;;;;;1.92;0.70;;;;;;;-148.22;100.00;64452.44;5007773;28;20080;-62
2022/08/07 11:17:55;;;;;;;2.45;0.90;;;;;;;-148.22;100.00;64452.44;5007937;28;20057;-62
2022/08/07 11:20:50;;;;;;;3.15;0.50;;;;;;;-148.22;100.00;64452.44;5006567;28;20501;-62
2022/08/07 11:23:22;;;;;;;1.85;0.93;;;;;;;-148.22;100.00;64452.44;5007843;28;20075;-63
2022/08/07 11:26:32;;;;;;;3.28;0.60;;;;;;;-148.22;100.00;64452.44;5007353;28;20045;-63
2022/08/07 11:29:08;;;;;;;1.92;0.60;;;;;;;-148.22;100.00;64452.44;4996017;28;20042;-63
2022/08/07 11:32:03;;;;;;;;;;;;;;;-148.22;100.00;64452.44;4991863;28;20053;-62
2022/08/07 11:34:36;;;;;;;1.27;0.85;;;;;;;-148.22;100.00;64452.44;5000642;28;19922;-62
2022/08/07 11:37:43;;;;;;;0.88;0.45;;;;;;;-148.22;100.00;64452.44;4990317;28;20045;-62
2022/08/07 11:40:48;;;;;;;1.85;0.50;;;;;;;-148.22;100.00;64452.44;4997161;28;20045;-61
2022/08/07 11:43:23;;;;;;;0.68;0.45;;;;;;;-148.22;100.00;64452.44;4994835;28;20514;-62
2022/08/07 11:46:27;;;;;;;1.27;0.50;;;;;;;-148.22;100.00;64452.44;4995140;28;20058;-62
2022/08/07 11:49:35;;;;;;;1.75;0.47;;;;;;;-148.22;100.00;64452.44;5003121;28;20065;-63
2022/08/07 11:53:36;;;;;;;1.13;0.50;;;;;;;-148.22;100.00;64452.44;4994516;28;20316;-63
2022/08/07 11:56:44;;;;;;;0.47;0.45;;;;;;;-148.22;100.00;64452.44;4941901;29;20051;-60
2022/08/07 11:59:51;;;;;;;1.30;0.50;;;;;;;-148.22;100.00;64452.44;4928879;29;20611;-61
2022/08/07 12:03:02;;;;;;;1.90;0.50;;;;;;;-148.22;100.00;64452.44;4996823;28;20553;-64
2022/08/07 12:05:47;;;;;;;2.00;0.50;;;;;;;-148.22;100.00;64452.44;5000064;28;20551;-63
2022/08/07 12:08:21;;;;;;;2.38;0.60;;;;;;;-148.22;100.00;64452.44;4996276;28;20084;-63
2022/08/07 12:11:03;;;;;;;1.25;0.40;;;;;;;-148.22;100.00;64452.44;4994529;28;20158;-64
2022/08/07 12:14:00;;;;;;;0.82;0.43;;;;;;;-148.22;100.00;64452.44;4985306;28;20050;-64
2022/08/07 12:16:34;;;;;;;;;;;;;;;-148.22;100.00;64452.44;4997202;28;20129;-61
2022/08/07 12:19:16;;;;;;;1.48;0.60;;;;;;;-148.22;100.00;64452.44;4999057;28;20456;-64
2022/08/07 12:22:07;;;;;;;1.20;0.50;;;;;;;-148.22;100.00;64452.44;4991800;28;20046;-61
2022/08/07 12:29:08;;;;;;;0.77;0.30;;;;;;;-148.22;100.00;64452.44;4989434;28;20031;-63
2022/08/07 12:31:47;;;;;;;2.33;0.60;;;;;;;-148.22;100.00;64452.44;4949713;28;20070;-60